Time;durP1;ratioP1;P1;durP2;ratioP2;P2;SDS_P1;SDS_P2;PMS_P1;PMS_P2;Temp;Humidity;BMP_temperature;BMP_pressure;BME280_temperature;BME280_humidity;BME280_pressure;Samples;Min_cycle;Max_cycle;Signal;HPM_P1;HPM_P2
2023/07/11 00:00:17;;;;;;;5.38;1.63;;;;;;;;;;5053354;28;20035;-53
2023/07/11 00:02:45;;;;;;;7.45;2.00;;;;;;;;;;5053228;28;20033;-54
2023/07/11 00:05:13;;;;;;;6.65;1.88;;;;;;;;;;5053279;28;20033;-54
2023/07/11 00:07:41;;;;;;;5.80;1.70;;;;;;;;;;5053300;28;20071;-55
2023/07/11 00:10:09;;;;;;;6.68;1.58;;;;;;;;;;5053158;28;20044;-56
2023/07/11 00:12:36;;;;;;;5.60;1.67;;;;;;;;;;5035181;28;20478;-54
2023/07/11 00:15:04;;;;;;;10.82;2.00;;;;;;;;;;5053476;28;20104;-54
2023/07/11 00:17:31;;;;;;;6.05;1.63;;;;;;;;;;5052888;28;20067;-55
2023/07/11 00:19:58;;;;;;;7.15;2.03;;;;;;;;;;5052954;28;20052;-55
2023/07/11 00:22:28;;;;;;;6.80;1.65;;;;;;;;;;5052971;28;20096;-55
2023/07/11 00:24:55;;;;;;;6.63;1.77;;;;;;;;;;5052892;28;20090;-55
2023/07/11 00:27:23;;;;;;;4.25;1.73;;;;;;;;;;5052912;28;20028;-54
2023/07/11 00:29:51;;;;;;;3.63;1.60;;;;;;;;;;5052632;28;20221;-54
2023/07/11 00:32:19;;;;;;;3.90;1.90;;;;;;;;;;5052616;28;20085;-54
2023/07/11 00:34:46;;;;;;;5.68;1.80;;;;;;;;;;5052708;28;20112;-56
2023/07/11 00:37:13;;;;;;;5.65;1.75;;;;;;;;;;5052710;28;20020;-55
2023/07/11 00:39:40;;;;;;;9.55;2.22;;;;;;;;;;5052552;28;20033;-54
2023/07/11 00:42:08;;;;;;;5.28;1.90;;;;;;;;;;5052594;28;20032;-54
2023/07/11 00:44:50;;;;;;;7.63;2.22;;;;;;;;;;5052501;28;20033;-55
2023/07/11 00:47:17;;;;;;;4.75;1.58;;;;;;;;;;5052520;28;20024;-55
2023/07/11 00:49:44;;;;;;;5.00;2.05;;;;;;;;;;5052221;28;20250;-55
2023/07/11 00:52:11;;;;;;;4.78;1.67;;;;;;;;;;5052441;28;20552;-55
2023/07/11 00:54:38;;;;;;;2.97;1.70;;;;;;;;;;5052351;28;20041;-55
2023/07/11 00:57:08;;;;;;;3.28;1.40;;;;;;;;;;5052319;28;20407;-55
2023/07/11 00:59:35;;;;;;;4.93;1.70;;;;;;;;;;5052001;28;20406;-55
2023/07/11 01:02:05;;;;;;;7.32;1.95;;;;;;;;;;5052220;28;20025;-55
2023/07/11 01:04:33;;;;;;;3.65;1.70;;;;;;;;;;5052160;28;20166;-56
2023/07/11 01:07:00;;;;;;;5.10;1.70;;;;;;;;;;5052240;28;20036;-55
2023/07/11 01:09:27;;;;;;;5.07;1.70;;;;;;;;;;5052106;28;20036;-55
2023/07/11 01:11:59;;;;;;;4.13;1.40;;;;;;;;;;5052115;28;20021;-56
2023/07/11 01:14:27;;;;;;;7.65;1.63;;;;;;;;;;5052128;28;20048;-54
2023/07/11 01:16:54;;;;;;;2.78;1.50;;;;;;;;;;5052053;28;20241;-55
2023/07/11 01:19:22;;;;;;;8.27;1.70;;;;;;;;;;5052015;28;20024;-54
2023/07/11 01:21:50;;;;;;;3.70;1.80;;;;;;;;;;5052037;28;20118;-55
2023/07/11 01:24:17;;;;;;;3.78;1.70;;;;;;;;;;5051979;28;20033;-55
2023/07/11 01:26:47;;;;;;;4.40;1.60;;;;;;;;;;5051617;28;20091;-55
2023/07/11 01:29:14;;;;;;;5.63;1.67;;;;;;;;;;5051723;28;20096;-54
2023/07/11 01:31:41;;;;;;;6.90;2.00;;;;;;;;;;5051638;28;20507;-54
2023/07/11 01:34:09;;;;;;;3.53;1.48;;;;;;;;;;5051747;28;20541;-55
2023/07/11 01:36:36;;;;;;;3.50;1.60;;;;;;;;;;5051754;28;20048;-55
2023/07/11 01:39:06;;;;;;;5.13;1.98;;;;;;;;;;5051616;28;20057;-56
2023/07/11 01:41:34;;;;;;;4.53;1.90;;;;;;;;;;5051465;28;20035;-55
2023/07/11 01:44:01;;;;;;;4.32;1.50;;;;;;;;;;5051654;28;20047;-56
2023/07/11 01:46:28;;;;;;;5.80;1.80;;;;;;;;;;5051426;28;20033;-54
2023/07/11 01:48:56;;;;;;;3.63;1.58;;;;;;;;;;5051546;28;20031;-56
2023/07/11 01:51:23;;;;;;;4.68;1.67;;;;;;;;;;5051524;28;20041;-55
2023/07/11 01:53:50;;;;;;;3.03;1.50;;;;;;;;;;5051574;28;20029;-56
2023/07/11 01:56:17;;;;;;;3.55;1.77;;;;;;;;;;5051514;28;20399;-55
2023/07/11 01:58:44;;;;;;;3.97;1.63;;;;;;;;;;5051491;28;20458;-55
2023/07/11 02:01:11;;;;;;;3.03;1.27;;;;;;;;;;5051381;28;20032;-54
2023/07/11 02:03:38;;;;;;;3.28;1.40;;;;;;;;;;5051456;28;20033;-56
2023/07/11 02:06:05;;;;;;;4.10;1.50;;;;;;;;;;5051373;28;20037;-55
2023/07/11 02:08:32;;;;;;;5.00;1.60;;;;;;;;;;5051372;28;20104;-55
2023/07/11 02:10:59;;;;;;;2.72;1.35;;;;;;;;;;5055248;28;20021;-55
2023/07/11 02:13:27;;;;;;;2.17;1.20;;;;;;;;;;5055508;28;20060;-54
2023/07/11 02:15:54;;;;;;;3.22;1.45;;;;;;;;;;5055372;28;20060;-55
2023/07/11 02:18:21;;;;;;;3.10;1.40;;;;;;;;;;5055643;28;20031;-55
2023/07/11 02:20:49;;;;;;;3.83;1.73;;;;;;;;;;5055178;28;20031;-55
2023/07/11 02:23:16;;;;;;;5.53;1.40;;;;;;;;;;5055080;28;20029;-55
2023/07/11 02:25:44;;;;;;;6.03;1.45;;;;;;;;;;5055120;28;20037;-54
2023/07/11 02:28:11;;;;;;;3.15;1.15;;;;;;;;;;5055229;28;20025;-56
2023/07/11 02:30:38;;;;;;;3.15;1.23;;;;;;;;;;5054967;28;20410;-55
2023/07/11 02:33:05;;;;;;;5.15;1.50;;;;;;;;;;5054895;28;20049;-56
2023/07/11 02:35:32;;;;;;;2.58;1.20;;;;;;;;;;5054993;28;20045;-54
2023/07/11 02:38:00;;;;;;;5.55;1.65;;;;;;;;;;5037383;28;20037;-54
2023/07/11 02:40:27;;;;;;;4.60;1.55;;;;;;;;;;5054834;28;20025;-55
2023/07/11 02:42:54;;;;;;;3.97;1.38;;;;;;;;;;5054723;28;20388;-56
2023/07/11 02:45:21;;;;;;;4.13;1.35;;;;;;;;;;5054794;28;20056;-56
2023/07/11 02:47:48;;;;;;;2.47;1.20;;;;;;;;;;5054797;28;20028;-56
2023/07/11 02:50:15;;;;;;;2.15;1.40;;;;;;;;;;5054661;28;20497;-56
2023/07/11 02:52:42;;;;;;;3.22;1.67;;;;;;;;;;5054699;28;20754;-55
2023/07/11 02:55:09;;;;;;;5.95;1.75;;;;;;;;;;5054628;28;20033;-56
2023/07/11 02:57:42;;;;;;;2.53;1.25;;;;;;;;;;5054628;28;20032;-54
2023/07/11 03:00:10;;;;;;;3.53;1.50;;;;;;;;;;5054592;28;20461;-55
2023/07/11 03:02:37;;;;;;;3.38;1.40;;;;;;;;;;5054493;28;20124;-54
2023/07/11 03:05:04;;;;;;;2.22;1.30;;;;;;;;;;5054466;28;20075;-54
2023/07/11 03:07:31;;;;;;;4.00;1.33;;;;;;;;;;5054512;28;20029;-54
2023/07/11 03:09:58;;;;;;;2.55;1.20;;;;;;;;;;5054276;28;20513;-54
2023/07/11 03:12:25;;;;;;;1.98;1.30;;;;;;;;;;5054316;28;20025;-56
2023/07/11 03:14:52;;;;;;;2.38;1.30;;;;;;;;;;5054313;28;20453;-56
2023/07/11 03:17:19;;;;;;;2.30;1.33;;;;;;;;;;5054197;28;20092;-53
2023/07/11 03:19:46;;;;;;;1.40;1.20;;;;;;;;;;5054352;28;20036;-55
2023/07/11 03:22:13;;;;;;;3.13;1.20;;;;;;;;;;5053035;28;20104;-55
2023/07/11 03:24:40;;;;;;;1.95;1.27;;;;;;;;;;5054053;28;20135;-56
2023/07/11 03:27:07;;;;;;;2.90;1.45;;;;;;;;;;5054037;28;20116;-56
2023/07/11 03:29:34;;;;;;;3.20;1.42;;;;;;;;;;5053981;28;20032;-55
2023/07/11 03:32:02;;;;;;;3.05;1.35;;;;;;;;;;5053822;28;20125;-56
2023/07/11 03:34:29;;;;;;;1.60;1.10;;;;;;;;;;5053742;28;20091;-55
2023/07/11 03:36:56;;;;;;;2.53;1.25;;;;;;;;;;5053880;28;20040;-55
2023/07/11 03:39:24;;;;;;;3.78;1.40;;;;;;;;;;5053685;28;20041;-55
2023/07/11 03:41:51;;;;;;;2.15;1.40;;;;;;;;;;5053634;28;20391;-55
2023/07/11 03:44:18;;;;;;;2.50;1.17;;;;;;;;;;5053775;28;20032;-55
2023/07/11 03:46:45;;;;;;;2.50;1.20;;;;;;;;;;5053637;28;20032;-56
2023/07/11 03:49:12;;;;;;;1.92;1.30;;;;;;;;;;5053727;28;20441;-54
2023/07/11 03:51:39;;;;;;;1.60;1.10;;;;;;;;;;5053586;28;20064;-56
2023/07/11 03:54:06;;;;;;;1.35;1.00;;;;;;;;;;5053601;28;20139;-55
2023/07/11 03:56:33;;;;;;;3.38;1.42;;;;;;;;;;5053450;28;20052;-56
2023/07/11 03:59:00;;;;;;;1.90;1.20;;;;;;;;;;5053376;28;20025;-54
2023/07/11 04:01:27;;;;;;;2.20;1.10;;;;;;;;;;5053492;28;20387;-56
2023/07/11 04:03:54;;;;;;;3.05;1.23;;;;;;;;;;5053380;28;20025;-54
2023/07/11 04:06:21;;;;;;;1.95;1.17;;;;;;;;;;5053280;28;20029;-54
2023/07/11 04:08:48;;;;;;;1.80;1.15;;;;;;;;;;5053225;28;20029;-54
2023/07/11 04:11:15;;;;;;;1.58;1.08;;;;;;;;;;5053237;28;20025;-54
2023/07/11 04:13:42;;;;;;;2.20;1.30;;;;;;;;;;5053174;28;20086;-53
2023/07/11 04:16:09;;;;;;;2.63;1.33;;;;;;;;;;5053138;28;20029;-54
2023/07/11 04:18:36;;;;;;;2.65;1.30;;;;;;;;;;5053129;28;20036;-54
2023/07/11 04:21:03;;;;;;;1.52;1.15;;;;;;;;;;5052952;28;20021;-55
2023/07/11 04:23:30;;;;;;;2.08;1.00;;;;;;;;;;5053085;28;20037;-54
2023/07/11 04:25:57;;;;;;;1.98;1.15;;;;;;;;;;5052650;28;20410;-55
2023/07/11 04:28:24;;;;;;;3.75;1.30;;;;;;;;;;5052834;28;20071;-56
2023/07/11 04:30:51;;;;;;;2.05;1.30;;;;;;;;;;5052789;28;20025;-53
2023/07/11 04:33:18;;;;;;;2.13;1.30;;;;;;;;;;5052319;28;20045;-55
2023/07/11 04:35:46;;;;;;;2.22;1.10;;;;;;;;;;5052732;28;20033;-55
2023/07/11 04:38:13;;;;;;;2.80;1.25;;;;;;;;;;5052621;28;20090;-55
2023/07/11 04:40:40;;;;;;;1.80;1.20;;;;;;;;;;5052612;28;20021;-55
2023/07/11 04:43:07;;;;;;;2.55;1.20;;;;;;;;;;5052626;28;20037;-55
2023/07/11 04:45:34;;;;;;;2.20;1.08;;;;;;;;;;5052465;28;20510;-55
2023/07/11 04:48:02;;;;;;;1.67;1.00;;;;;;;;;;5052585;28;20096;-55
2023/07/11 04:50:29;;;;;;;1.77;1.10;;;;;;;;;;5052376;28;20091;-55
2023/07/11 04:52:56;;;;;;;1.52;1.02;;;;;;;;;;5052415;28;20032;-56
2023/07/11 04:55:23;;;;;;;1.48;0.95;;;;;;;;;;5052422;28;20090;-55
2023/07/11 04:57:50;;;;;;;1.90;1.30;;;;;;;;;;5052679;28;20104;-54
2023/07/11 05:00:17;;;;;;;2.17;1.10;;;;;;;;;;5052205;28;20542;-55
2023/07/11 05:02:44;;;;;;;2.15;1.20;;;;;;;;;;5052311;28;20047;-54
2023/07/11 05:05:11;;;;;;;1.70;1.00;;;;;;;;;;5052137;28;20040;-55
2023/07/11 05:07:38;;;;;;;1.13;1.00;;;;;;;;;;5052193;28;20036;-56
2023/07/11 05:10:05;;;;;;;1.17;0.90;;;;;;;;;;5052078;28;20025;-55
2023/07/11 05:12:32;;;;;;;1.17;0.90;;;;;;;;;;5052073;28;20033;-55
2023/07/11 05:14:59;;;;;;;1.40;1.10;;;;;;;;;;5051899;28;20513;-55
2023/07/11 05:17:26;;;;;;;1.45;0.98;;;;;;;;;;5051997;28;20024;-53
2023/07/11 05:19:53;;;;;;;2.95;1.50;;;;;;;;;;5051909;28;20052;-54
2023/07/11 05:22:20;;;;;;;1.60;1.23;;;;;;;;;;5051965;28;20045;-54
2023/07/11 05:24:47;;;;;;;1.98;1.20;;;;;;;;;;5051812;28;20036;-53
2023/07/11 05:27:14;;;;;;;2.47;1.40;;;;;;;;;;5051833;28;20399;-55
2023/07/11 05:29:41;;;;;;;1.63;1.05;;;;;;;;;;5051892;28;20082;-55
2023/07/11 05:32:08;;;;;;;1.60;1.00;;;;;;;;;;5051857;28;20422;-55
2023/07/11 05:34:36;;;;;;;3.80;1.20;;;;;;;;;;5051743;28;20027;-54
2023/07/11 05:37:03;;;;;;;1.05;0.95;;;;;;;;;;5051564;28;20071;-54
2023/07/11 05:39:30;;;;;;;1.60;1.00;;;;;;;;;;5051652;28;20021;-56
2023/07/11 05:41:57;;;;;;;1.42;1.15;;;;;;;;;;5051648;28;20037;-55
2023/07/11 05:44:25;;;;;;;1.50;1.00;;;;;;;;;;5051034;28;20111;-56
2023/07/11 05:46:52;;;;;;;1.58;1.15;;;;;;;;;;5051543;28;20040;-55
2023/07/11 05:49:19;;;;;;;1.58;1.02;;;;;;;;;;5051500;28;20037;-54
2023/07/11 05:51:46;;;;;;;1.48;1.00;;;;;;;;;;5051534;28;20025;-55
2023/07/11 05:54:13;;;;;;;1.63;0.93;;;;;;;;;;5051531;28;20052;-55
2023/07/11 05:56:41;;;;;;;1.23;0.90;;;;;;;;;;5051396;28;20045;-54
2023/07/11 05:59:08;;;;;;;1.15;0.90;;;;;;;;;;5051423;28;20044;-55
2023/07/11 06:01:35;;;;;;;1.13;0.93;;;;;;;;;;5050174;28;20055;-55
2023/07/11 06:04:07;;;;;;;2.35;1.00;;;;;;;;;;5051403;28;20059;-53
2023/07/11 06:06:36;;;;;;;1.15;0.75;;;;;;;;;;5051700;28;20079;-54
2023/07/11 06:09:04;;;;;;;1.10;0.80;;;;;;;;;;5050999;28;20091;-55
2023/07/11 06:11:31;;;;;;;1.58;0.98;;;;;;;;;;5051382;28;20394;-55
2023/07/11 06:13:58;;;;;;;1.23;0.93;;;;;;;;;;5051409;28;20799;-56
2023/07/11 06:16:25;;;;;;;2.17;1.00;;;;;;;;;;5051316;28;20057;-54
2023/07/11 06:18:53;;;;;;;1.13;0.93;;;;;;;;;;5051274;28;20037;-55
2023/07/11 06:21:20;;;;;;;1.98;0.90;;;;;;;;;;5051287;28;20086;-54
2023/07/11 06:23:47;;;;;;;1.90;1.10;;;;;;;;;;5051118;28;20390;-55
2023/07/11 06:26:15;;;;;;;2.30;1.05;;;;;;;;;;5051209;28;20037;-56
2023/07/11 06:28:42;;;;;;;1.70;0.90;;;;;;;;;;5051190;28;20158;-54
2023/07/11 06:31:11;;;;;;;1.23;0.80;;;;;;;;;;5050896;28;20434;-55
2023/07/11 06:33:38;;;;;;;1.33;0.90;;;;;;;;;;5050984;28;20086;-56
2023/07/11 06:36:06;;;;;;;1.30;0.70;;;;;;;;;;5051161;28;20487;-56
2023/07/11 06:38:33;;;;;;;1.15;0.82;;;;;;;;;;5050993;28;20029;-53
2023/07/11 06:41:00;;;;;;;1.73;1.20;;;;;;;;;;5051148;28;20086;-54
2023/07/11 06:43:28;;;;;;;1.40;0.80;;;;;;;;;;5178651;22;20041;-46
2023/07/11 06:45:56;;;;;;;1.63;0.90;;;;;;;;;;5051031;28;20036;-45
2023/07/11 06:48:24;;;;;;;1.23;0.80;;;;;;;;;;5051101;28;20025;-46
2023/07/11 06:50:52;;;;;;;1.58;0.95;;;;;;;;;;5050993;28;20024;-45
2023/07/11 06:53:19;;;;;;;1.33;0.90;;;;;;;;;;5050981;28;20071;-45
2023/07/11 06:55:51;;;;;;;0.98;0.80;;;;;;;;;;5053030;28;20382;-45
2023/07/11 06:58:18;;;;;;;1.25;0.88;;;;;;;;;;5054700;28;20021;-46
2023/07/11 07:00:51;;;;;;;0.70;0.60;;;;;;;;;;5054675;28;20595;-47
2023/07/11 07:03:18;;;;;;;1.10;0.80;;;;;;;;;;5054493;28;20414;-45
2023/07/11 07:05:52;;;;;;;0.90;0.80;;;;;;;;;;5054531;28;20040;-45
2023/07/11 07:08:20;;;;;;;2.20;0.85;;;;;;;;;;5054479;28;20029;-45
2023/07/11 07:10:48;;;;;;;1.27;0.90;;;;;;;;;;5054442;28;20071;-46
2023/07/11 07:13:15;;;;;;;1.33;0.85;;;;;;;;;;5054374;28;20013;-47
2023/07/11 07:15:42;;;;;;;0.80;0.60;;;;;;;;;;5054384;28;20056;-47
2023/07/11 07:18:10;;;;;;;1.00;0.80;;;;;;;;;;5054283;28;20021;-45
2023/07/11 07:20:37;;;;;;;3.42;0.63;;;;;;;;;;5054291;28;20036;-47
2023/07/11 07:23:05;;;;;;;1.35;0.70;;;;;;;;;;5054131;28;20528;-46
2023/07/11 07:25:32;;;;;;;1.00;0.80;;;;;;;;;;5053938;28;20037;-45
2023/07/11 07:27:59;;;;;;;1.85;0.80;;;;;;;;;;5054122;28;20550;-45
2023/07/11 07:30:26;;;;;;;0.90;0.70;;;;;;;;;;5054119;28;20032;-45
2023/07/11 07:32:53;;;;;;;0.85;0.70;;;;;;;;;;5053912;28;20025;-45
2023/07/11 07:35:20;;;;;;;0.80;0.60;;;;;;;;;;5053937;28;20024;-45
2023/07/11 07:37:47;;;;;;;1.15;0.70;;;;;;;;;;5053982;28;20040;-45
2023/07/11 07:40:15;;;;;;;0.90;0.70;;;;;;;;;;5053805;28;20040;-45
2023/07/11 07:42:42;;;;;;;1.40;0.80;;;;;;;;;;5053591;28;20032;-46
2023/07/11 07:45:09;;;;;;;1.35;0.80;;;;;;;;;;5053635;28;20024;-45
2023/07/11 07:47:36;;;;;;;1.17;0.70;;;;;;;;;;5053814;28;20099;-46
2023/07/11 07:50:03;;;;;;;0.85;0.73;;;;;;;;;;5053759;28;20020;-45
2023/07/11 07:52:31;;;;;;;1.25;0.85;;;;;;;;;;5053661;28;20048;-45
2023/07/11 07:54:58;;;;;;;0.68;0.55;;;;;;;;;;5053924;28;20103;-46
2023/07/11 07:57:25;;;;;;;0.65;0.57;;;;;;;;;;5053545;28;20029;-45
2023/07/11 07:59:52;;;;;;;0.75;0.68;;;;;;;;;;5053374;28;20479;-45
2023/07/11 08:02:19;;;;;;;0.90;0.63;;;;;;;;;;5053381;28;20070;-49
2023/07/11 08:04:48;;;;;;;1.05;0.70;;;;;;;;;;5053379;28;20021;-45
2023/07/11 08:07:15;;;;;;;0.77;0.60;;;;;;;;;;5052628;28;20033;-47
2023/07/11 08:09:43;;;;;;;0.73;0.60;;;;;;;;;;5035311;28;20566;-48
2023/07/11 08:12:11;;;;;;;0.90;0.80;;;;;;;;;;5047127;28;20025;-45
2023/07/11 08:14:38;;;;;;;1.23;0.70;;;;;;;;;;5053069;28;20033;-45
2023/07/11 08:17:06;;;;;;;1.13;0.70;;;;;;;;;;5053182;28;20104;-45
2023/07/11 08:19:33;;;;;;;0.68;0.63;;;;;;;;;;5052999;28;20450;-45
2023/07/11 08:22:00;;;;;;;1.20;0.60;;;;;;;;;;5053019;28;20021;-46
2023/07/11 08:24:27;;;;;;;0.73;0.57;;;;;;;;;;5053056;28;20033;-45
2023/07/11 08:26:54;;;;;;;0.82;0.70;;;;;;;;;;5052878;28;20082;-45
2023/07/11 08:29:21;;;;;;;0.75;0.65;;;;;;;;;;5052962;28;20032;-46
2023/07/11 08:31:48;;;;;;;1.00;0.68;;;;;;;;;;5052837;28;20029;-47
2023/07/11 08:34:15;;;;;;;0.80;0.68;;;;;;;;;;5052916;28;20453;-45
2023/07/11 08:36:42;;;;;;;1.08;0.63;;;;;;;;;;5052770;28;20028;-45
2023/07/11 08:39:09;;;;;;;0.60;0.50;;;;;;;;;;5052791;28;20028;-46
2023/07/11 08:41:47;;;;;;;0.80;0.60;;;;;;;;;;5052651;28;20025;-45
2023/07/11 08:44:35;;;;;;;0.70;0.57;;;;;;;;;;5052531;28;20049;-45
2023/07/11 08:47:16;;;;;;;0.77;0.70;;;;;;;;;;5052397;28;20063;-45
2023/07/11 08:49:49;;;;;;;0.57;0.50;;;;;;;;;;5052571;28;20128;-45
2023/07/11 08:52:17;;;;;;;;;;;;;;;;;;5052937;28;20497;-46
2023/07/11 08:55:10;;;;;;;0.70;0.57;;;;;;;;;;5052368;28;20356;-48
2023/07/11 08:57:36;;;;;;;;;;;;;;;;;;5051102;28;20047;-44
2023/07/11 09:00:09;;;;;;;0.80;0.65;;;;;;;;;;5052244;28;20297;-45
2023/07/11 09:02:51;;;;;;;1.10;0.70;;;;;;;;;;5052203;28;20103;-45
2023/07/11 09:05:34;;;;;;;0.85;0.60;;;;;;;;;;5052510;28;20051;-44
2023/07/11 09:08:02;;;;;;;0.50;0.50;;;;;;;;;;5052246;28;20033;-45
2023/07/11 09:10:35;;;;;;;0.47;0.47;;;;;;;;;;5052159;28;20025;-45
2023/07/11 09:13:19;;;;;;;4.43;1.00;;;;;;;;;;5052059;28;20552;-45
2023/07/11 09:15:49;;;;;;;0.93;0.70;;;;;;;;;;5051936;28;20075;-46
2023/07/11 09:18:22;;;;;;;1.67;0.70;;;;;;;;;;5051509;28;20020;-46
2023/07/11 09:20:56;;;;;;;0.93;0.52;;;;;;;;;;5052076;28;20088;-45
2023/07/11 09:23:35;;;;;;;0.73;0.50;;;;;;;;;;5051937;28;20033;-46
2023/07/11 09:26:05;;;;;;;0.80;0.60;;;;;;;;;;5051745;28;20044;-45
2023/07/11 09:28:33;;;;;;;1.15;0.60;;;;;;;;;;5051897;28;20040;-45
2023/07/11 09:31:02;;;;;;;1.45;0.60;;;;;;;;;;5051741;28;20032;-44
2023/07/11 09:33:31;;;;;;;0.60;0.60;;;;;;;;;;5051786;28;20025;-45
2023/07/11 09:35:59;;;;;;;0.60;0.50;;;;;;;;;;5051805;28;20056;-45
2023/07/11 09:38:29;;;;;;;0.70;0.60;;;;;;;;;;5051779;28;20025;-45
2023/07/11 09:41:11;;;;;;;0.90;0.70;;;;;;;;;;5051706;28;20032;-45
2023/07/11 09:43:38;;;;;;;0.60;0.50;;;;;;;;;;5051383;28;20071;-45
2023/07/11 09:46:13;;;;;;;0.95;0.50;;;;;;;;;;5051600;28;20086;-46
2023/07/11 09:48:41;;;;;;;1.30;0.50;;;;;;;;;;5051575;28;20029;-45
2023/07/11 09:51:26;;;;;;;0.70;0.55;;;;;;;;;;5051585;28;20024;-45
2023/07/11 09:53:54;;;;;;;0.60;0.55;;;;;;;;;;5051665;28;20021;-47
2023/07/11 09:56:21;;;;;;;0.80;0.70;;;;;;;;;;5051549;28;20025;-45
2023/07/11 09:58:53;;;;;;;0.65;0.50;;;;;;;;;;5051506;28;20035;-45
2023/07/11 10:01:23;;;;;;;0.63;0.50;;;;;;;;;;5051374;28;20364;-45
2023/07/11 10:03:53;;;;;;;1.13;0.57;;;;;;;;;;5051518;28;20053;-46
2023/07/11 10:06:29;;;;;;;0.68;0.68;;;;;;;;;;5051376;28;20032;-45
2023/07/11 10:08:56;;;;;;;0.50;0.40;;;;;;;;;;5051440;28;20063;-45
2023/07/11 10:11:23;;;;;;;0.80;0.50;;;;;;;;;;5051315;28;20021;-45
2023/07/11 10:13:56;;;;;;;0.60;0.50;;;;;;;;;;5051429;28;20430;-45
2023/07/11 10:16:23;;;;;;;0.70;0.50;;;;;;;;;;5051364;28;20486;-45
2023/07/11 10:18:52;;;;;;;1.00;0.45;;;;;;;;;;5051368;28;20021;-45
2023/07/11 10:21:24;;;;;;;0.98;0.60;;;;;;;;;;5051086;28;20025;-45
2023/07/11 10:23:53;;;;;;;0.60;0.60;;;;;;;;;;5051148;28;20029;-45
2023/07/11 10:26:22;;;;;;;0.93;0.40;;;;;;;;;;5051241;28;20039;-45
2023/07/11 10:29:10;;;;;;;0.77;0.55;;;;;;;;;;5051275;28;20040;-46
2023/07/11 10:31:46;;;;;;;0.77;0.60;;;;;;;;;;5054202;28;20040;-45
2023/07/11 10:34:36;;;;;;;0.65;0.50;;;;;;;;;;5055233;28;20028;-45
2023/07/11 10:37:12;;;;;;;0.60;0.50;;;;;;;;;;5049699;28;20041;-45
2023/07/11 10:39:51;;;;;;;0.50;0.50;;;;;;;;;;5054940;28;20381;-45
2023/07/11 10:42:18;;;;;;;0.63;0.50;;;;;;;;;;5054905;28;20446;-46
2023/07/11 10:44:46;;;;;;;0.85;0.57;;;;;;;;;;5054767;28;20053;-47
2023/07/11 10:47:13;;;;;;;0.68;0.50;;;;;;;;;;5054822;28;20032;-45
2023/07/11 10:49:48;;;;;;;0.88;0.50;;;;;;;;;;5055174;28;20025;-45
2023/07/11 10:52:22;;;;;;;1.08;0.70;;;;;;;;;;5054558;28;20021;-45
2023/07/11 10:55:13;;;;;;;0.60;0.47;;;;;;;;;;5054769;28;20013;-44
2023/07/11 10:57:42;;;;;;;1.05;0.57;;;;;;;;;;5054668;28;20025;-45
2023/07/11 11:00:16;;;;;;;1.30;0.50;;;;;;;;;;5054595;28;20017;-45
2023/07/11 11:02:52;;;;;;;2.13;0.47;;;;;;;;;;5054506;28;20028;-45
2023/07/11 11:05:29;;;;;;;0.60;0.50;;;;;;;;;;5054414;28;20025;-45
2023/07/11 11:07:59;;;;;;;0.60;0.50;;;;;;;;;;5054590;28;20025;-47
2023/07/11 11:10:28;;;;;;;1.00;0.70;;;;;;;;;;5054500;28;20041;-47
2023/07/11 11:13:15;;;;;;;0.93;0.50;;;;;;;;;;5054304;28;20017;-45
2023/07/11 11:16:05;;;;;;;0.73;0.60;;;;;;;;;;5054364;28;20112;-45
2023/07/11 11:18:41;;;;;;;0.75;0.40;;;;;;;;;;5048969;28;20043;-46
2023/07/11 11:21:18;;;;;;;1.77;0.55;;;;;;;;;;5054106;28;20558;-51
2023/07/11 11:23:48;;;;;;;0.80;0.50;;;;;;;;;;5054275;28;20027;-46
2023/07/11 11:26:33;;;;;;;2.15;0.50;;;;;;;;;;5054079;28;20083;-45
2023/07/11 11:29:13;;;;;;;2.30;0.50;;;;;;;;;;5054043;28;20049;-45
2023/07/11 11:31:48;;;;;;;0.70;0.50;;;;;;;;;;5053837;28;20052;-46
2023/07/11 11:34:40;;;;;;;0.47;0.40;;;;;;;;;;5054009;28;20032;-45
2023/07/11 11:37:13;;;;;;;0.90;0.60;;;;;;;;;;5053981;28;20078;-46
2023/07/11 11:39:45;;;;;;;0.75;0.55;;;;;;;;;;5053927;28;20013;-45
2023/07/11 11:42:20;;;;;;;0.60;0.45;;;;;;;;;;5052725;28;20138;-45
2023/07/11 11:45:02;;;;;;;1.77;0.70;;;;;;;;;;5053430;28;20053;-45
2023/07/11 11:47:31;;;;;;;1.08;0.70;;;;;;;;;;5053632;28;20044;-45
2023/07/11 11:49:59;;;;;;;1.52;0.80;;;;;;;;;;5053727;28;20025;-48
2023/07/11 11:52:26;;;;;;;0.60;0.50;;;;;;;;;;5053447;28;20430;-46
2023/07/11 11:54:53;;;;;;;2.60;0.50;;;;;;;;;;5053608;28;20020;-45
2023/07/11 11:57:28;;;;;;;1.25;0.70;;;;;;;;;;5053558;28;20045;-45
2023/07/11 11:59:56;;;;;;;1.38;0.50;;;;;;;;;;5053582;28;20017;-47
2023/07/11 12:02:49;;;;;;;0.98;0.60;;;;;;;;;;5053404;28;20021;-46
2023/07/11 12:05:20;;;;;;;1.75;0.60;;;;;;;;;;5051558;28;20037;-47
2023/07/11 12:07:47;;;;;;;1.60;0.70;;;;;;;;;;5053740;28;20067;-45
2023/07/11 12:10:24;;;;;;;1.83;0.68;;;;;;;;;;5053342;28;20435;-46
2023/07/11 12:12:56;;;;;;;1.98;0.55;;;;;;;;;;5035111;28;20448;-45
2023/07/11 12:15:28;;;;;;;1.50;0.60;;;;;;;;;;5053250;28;20025;-45
2023/07/11 12:17:55;;;;;;;0.60;0.50;;;;;;;;;;5053208;28;20248;-45
2023/07/11 12:20:23;;;;;;;2.05;0.50;;;;;;;;;;5053210;28;20512;-45
2023/07/11 12:22:50;;;;;;;1.73;0.52;;;;;;;;;;5052913;28;20037;-45
2023/07/11 12:25:23;;;;;;;2.65;0.60;;;;;;;;;;5052835;28;20068;-45
2023/07/11 12:27:52;;;;;;;1.08;0.57;;;;;;;;;;5053005;28;20402;-45
2023/07/11 12:30:30;;;;;;;0.90;0.52;;;;;;;;;;5052977;28;20025;-45
2023/07/11 12:32:58;;;;;;;1.52;0.70;;;;;;;;;;5052765;28;20430;-45
2023/07/11 12:35:26;;;;;;;1.52;0.63;;;;;;;;;;5052892;28;20387;-46
2023/07/11 12:37:56;;;;;;;1.08;0.60;;;;;;;;;;5046945;28;20036;-45
2023/07/11 12:40:28;;;;;;;1.98;0.70;;;;;;;;;;5052795;28;20017;-45
2023/07/11 12:42:57;;;;;;;1.35;0.60;;;;;;;;;;5052457;28;20534;-45
2023/07/11 12:45:25;;;;;;;0.88;0.52;;;;;;;;;;5052573;28;20033;-45
2023/07/11 12:48:02;;;;;;;1.02;0.70;;;;;;;;;;5052589;28;20214;-45
2023/07/11 12:50:34;;;;;;;2.60;0.70;;;;;;;;;;5052574;28;20013;-45
2023/07/11 12:53:02;;;;;;;1.38;0.52;;;;;;;;;;5046302;28;20033;-45
2023/07/11 12:55:30;;;;;;;2.97;0.80;;;;;;;;;;5052460;28;20123;-45
2023/07/11 12:57:58;;;;;;;0.60;0.50;;;;;;;;;;5052369;28;20024;-45
2023/07/11 13:00:28;;;;;;;2.05;0.60;;;;;;;;;;5052430;28;20021;-45
2023/07/11 13:02:56;;;;;;;0.80;0.63;;;;;;;;;;5052275;28;20017;-45
2023/07/11 13:05:23;;;;;;;2.42;0.68;;;;;;;;;;5052219;28;20040;-45
2023/07/11 13:07:50;;;;;;;3.83;0.80;;;;;;;;;;5052285;28;20174;-45
2023/07/11 13:10:25;;;;;;;1.10;0.68;;;;;;;;;;5052224;28;20072;-45
2023/07/11 13:12:52;;;;;;;1.42;0.60;;;;;;;;;;5052096;28;20017;-45
2023/07/11 13:15:21;;;;;;;2.33;0.50;;;;;;;;;;5052143;28;20482;-44
2023/07/11 13:17:49;;;;;;;1.38;0.70;;;;;;;;;;5052014;28;20029;-46
2023/07/11 13:20:26;;;;;;;2.13;0.60;;;;;;;;;;5051997;28;20029;-45
2023/07/11 13:22:54;;;;;;;0.80;0.50;;;;;;;;;;5051932;28;20025;-45
2023/07/11 13:25:29;;;;;;;1.90;0.60;;;;;;;;;;5051899;28;20025;-48
2023/07/11 13:27:56;;;;;;;0.90;0.50;;;;;;;;;;5051979;28;20513;-45
2023/07/11 13:30:41;;;;;;;0.85;0.50;;;;;;;;;;5051751;28;20029;-44
2023/07/11 13:33:16;;;;;;;2.08;0.70;;;;;;;;;;5051569;28;20025;-45
2023/07/11 13:35:56;;;;;;;1.50;0.70;;;;;;;;;;5051781;28;20099;-45
2023/07/11 13:38:34;;;;;;;3.13;0.60;;;;;;;;;;5051780;28;20025;-45
2023/07/11 13:41:01;;;;;;;0.80;0.40;;;;;;;;;;5051671;28;20016;-45
2023/07/11 13:43:28;;;;;;;2.25;0.50;;;;;;;;;;5051544;28;20182;-45
2023/07/11 13:46:01;;;;;;;2.00;0.57;;;;;;;;;;5051586;28;20108;-44
2023/07/11 13:48:30;;;;;;;1.38;0.60;;;;;;;;;;5051617;28;20025;-45
2023/07/11 13:51:16;;;;;;;1.42;0.70;;;;;;;;;;5051584;28;20040;-46
2023/07/11 13:53:45;;;;;;;1.17;0.50;;;;;;;;;;5051458;28;20056;-45
2023/07/11 13:56:13;;;;;;;0.60;0.50;;;;;;;;;;5051290;28;20039;-46
2023/07/11 13:58:40;;;;;;;1.25;0.60;;;;;;;;;;5051531;28;20048;-45
2023/07/11 14:01:11;;;;;;;0.68;0.50;;;;;;;;;;5051420;28;20025;-46
2023/07/11 14:03:38;;;;;;;2.17;0.70;;;;;;;;;;5051505;28;20025;-45
2023/07/11 14:06:05;;;;;;;0.98;0.50;;;;;;;;;;5053981;28;20086;-45
2023/07/11 14:08:32;;;;;;;0.65;0.50;;;;;;;;;;5055570;28;20048;-44
2023/07/11 14:10:59;;;;;;;1.02;0.70;;;;;;;;;;5055828;28;20105;-45
2023/07/11 14:13:27;;;;;;;1.30;0.60;;;;;;;;;;5055527;28;20017;-45
2023/07/11 14:15:57;;;;;;;1.40;0.50;;;;;;;;;;5055473;28;20071;-45
2023/07/11 14:18:24;;;;;;;1.95;0.70;;;;;;;;;;5055378;28;20031;-45
2023/07/11 14:20:51;;;;;;;1.40;0.70;;;;;;;;;;5055327;28;20056;-45
2023/07/11 14:23:21;;;;;;;0.68;0.52;;;;;;;;;;5055372;28;20024;-45
2023/07/11 14:25:48;;;;;;;1.73;0.60;;;;;;;;;;5055130;28;20452;-46
2023/07/11 14:28:15;;;;;;;1.50;0.80;;;;;;;;;;5055254;28;20043;-45
2023/07/11 14:30:43;;;;;;;1.42;0.60;;;;;;;;;;5055256;28;20021;-45
2023/07/11 14:33:14;;;;;;;1.92;0.70;;;;;;;;;;5055086;28;20031;-45
2023/07/11 14:35:42;;;;;;;1.75;0.70;;;;;;;;;;5055197;28;20036;-45
2023/07/11 14:38:13;;;;;;;1.65;0.60;;;;;;;;;;5055092;28;20574;-46
2023/07/11 14:40:40;;;;;;;1.63;0.70;;;;;;;;;;5055091;28;20025;-45
2023/07/11 14:43:23;;;;;;;1.33;0.63;;;;;;;;;;5054790;28;20049;-46
2023/07/11 14:45:50;;;;;;;1.77;0.60;;;;;;;;;;5054854;28;20103;-45
2023/07/11 14:48:21;;;;;;;0.88;0.60;;;;;;;;;;5055015;28;20021;-45
2023/07/11 14:50:49;;;;;;;1.10;0.60;;;;;;;;;;5054812;28;20025;-45
2023/07/11 14:53:16;;;;;;;0.70;0.47;;;;;;;;;;5054823;28;20028;-45
2023/07/11 14:55:43;;;;;;;1.95;0.88;;;;;;;;;;5054855;28;20033;-44